Aviation Digital Data Service (ADDS)

Output produced by METARs form (0307 UTC 24 May 2015)
found at http://www.aviationweather.gov/adds/metars/
 
KJST 240254Z AUTO 23005KT 10SM CLR 14/00 A3037 RMK AO2 SLP284 T01440000 53001
KJST 240154Z AUTO 00000KT 10SM CLR 14/M01 A3037 RMK AO2 SLP286 T01441006
KJST 240054Z AUTO 00000KT 10SM CLR 15/M02 A3036 RMK AO2 SLP284 T01501017
KJST 232354Z AUTO 29004KT 10SM CLR 16/M01 A3037 RMK AO2 SLP287 T01611006 10189 20161 56005
KJST 232254Z AUTO 29007KT 10SM CLR 18/M02 A3037 RMK AO2 SLP288 T01781022
KJST 232154Z AUTO 29007KT 10SM CLR 18/M02 A3037 RMK AO2 SLP288 T01831017
KJST 232054Z AUTO 29006G15KT 10SM CLR 18/M02 A3038 RMK AO2 SLP293 T01831022 56011
KJST 231954Z AUTO 30008KT 10SM CLR 18/M02 A3039 RMK AO2 SLP295 T01831017
KJST 231854Z AUTO 29007KT 260V340 10SM CLR 18/M02 A3040 RMK AO2 SLP297 T01831022
KJST 231754Z AUTO VRB04KT 10SM CLR 17/M02 A3042 RMK AO2 SLP304 T01721017 10172 20056 58007
KJST 231654Z AUTO VRB04KT 10SM CLR 14/M03 A3043 RMK AO2 SLP310 T01441028
KJST 231554Z AUTO VRB06KT 10SM CLR 14/M03 A3044 RMK AO2 SLP313 T01391028
KJST 231454Z AUTO 29004KT 10SM CLR 12/M04 A3044 RMK AO2 SLP314 T01221044 50009
KJST 231354Z AUTO 10SM CLR 11/M03 A3044 RMK AO2 SLP314 T01061033
KJST 231254Z AUTO 25005KT 10SM CLR 08/M04 A3043 RMK AO2 SLP311 T00831039
KJST 231154Z AUTO 23004KT 10SM CLR 06/M04 A3041 RMK AO2 SLP305 70002 T00561039 10061 20017 53022
KJST 231054Z AUTO 23006KT 10SM CLR 03/M05 A3039 RMK AO2 SLP300 T00281050
KJST 230954Z AUTO 25005KT 10SM CLR 04/M08 A3035 RMK AO2 SLP285 T00391078
KJST 230854Z AUTO 22004KT 10SM CLR 03/M07 A3034 RMK AO2 SLP283 T00281067 53013
KJST 230754Z AUTO 00000KT 10SM CLR 03/M07 A3032 RMK AO2 SLP278 T00331067
KJST 230654Z AUTO 36004KT 10SM CLR 06/M09 A3031 RMK AO2 SLP269 T00561089
KJST 230554Z AUTO 03004KT 10SM CLR 05/M08 A3030 RMK AO2 SLP266 T00501083 10128 20039 50002
KJST 230454Z AUTO 34005KT 10SM CLR 06/M09 A3031 RMK AO2 SLP268 T00611089 401670044
KJST 230354Z AUTO 33012KT 10SM CLR 07/M08 A3030 RMK AO2 SLP264 T00671083
KJST 230254Z AUTO 31011KT 10SM CLR 07/M03 A3029 RMK AO2 SLP263 T00721033 53033
KJST 230154Z AUTO 32012KT 10SM CLR 09/M02 A3026 RMK AO2 SLP250 T00941022
KJST 230054Z AUTO 32010KT 10SM CLR 11/M03 A3022 RMK AO2 SLP238 T01061033
KJST 222354Z AUTO 30013G20KT 10SM CLR 13/M05 A3019 RMK AO2 PK WND 30028/2256 SLP227 60002 T01281050 10167 20128 53023
KJST 222254Z AUTO 30025G32KT 10SM CLR 14/M05 A3016 RMK AO2 PK WND 30032/2249 SLP216 T01441050
KJST 222154Z AUTO 31018G26KT 10SM SCT060 16/M01 A3014 RMK AO2 PK WND 32027/2137 SLP209 T01611006
KJST 222054Z AUTO 31014G24KT 10SM SCT043 SCT050 BKN060 14/06 A3011 RMK AO2 RAE00 SLP202 P0000 60002 T01440056 53007
KJST 221954Z AUTO 29010G18KT 10SM -RA BKN042 BKN060 14/08 A3010 RMK AO2 RAB1859 SLP198 P0001 T01390078
KJST 221854Z AUTO 27012G20KT 10SM BKN039 BKN048 OVC060 14/06 A3010 RMK AO2 PK WND 25026/1803 RAB34E54 SLP197 P0001 T01390061
KJST 221754Z AUTO 27011G23KT 10SM BKN037 BKN048 OVC060 14/06 A3009 RMK AO2 SLP195 T01390056 10150 20072 52000
KJST 221654Z AUTO 25011G19KT 10SM BKN042 OVC065 14/06 A3009 RMK AO2 SLP193 T01440056
KJST 221554Z AUTO 25013KT 10SM BKN080 OVC110 14/05 A3009 RMK AO2 SLP194 T01440050